createdAt,value
2022-09-18T04:04:41.438Z,1.38
2022-09-18T04:08:53.181Z,1.17
2022-09-18T04:13:04.323Z,1.67
2022-09-18T04:17:12.479Z,1.65
2022-09-18T04:21:17.951Z,1.58
2022-09-18T04:25:20.883Z,1.55
2022-09-18T04:29:23.917Z,1.08
2022-09-18T04:33:26.935Z,1.83
2022-09-18T04:37:31.074Z,1.60
2022-09-18T04:41:35.441Z,1.90
2022-09-18T04:45:39.626Z,1.73
2022-09-18T04:49:42.189Z,1.98
2022-09-18T04:53:46.153Z,1.73
2022-09-18T04:57:52.443Z,1.52
2022-09-18T05:01:57.061Z,1.92
2022-09-18T05:05:59.696Z,2.10
2022-09-18T05:10:03.679Z,2.30
2022-09-18T05:14:07.195Z,2.20
2022-09-18T05:18:12.433Z,2.00
2022-09-18T05:22:15.084Z,2.63
2022-09-18T05:26:23.997Z,1.83
2022-09-18T05:30:27.794Z,2.05
2022-09-18T05:34:33.882Z,1.80
2022-09-18T05:38:36.616Z,2.03
2022-09-18T05:42:47.039Z,1.77
2022-09-18T05:46:50.433Z,2.00
2022-09-18T05:50:53.508Z,1.80
2022-09-18T05:54:57.386Z,1.80
2022-09-18T05:59:01.271Z,2.05
2022-09-18T06:03:06.930Z,1.63
2022-09-18T06:07:09.511Z,1.70
2022-09-18T06:11:12.028Z,1.80
2022-09-18T06:15:17.080Z,2.15
2022-09-18T06:19:19.641Z,1.90
2022-09-18T06:23:26.003Z,1.50
2022-09-18T06:27:39.577Z,1.70
2022-09-18T06:31:43.460Z,1.50
2022-09-18T06:35:49.327Z,1.65
2022-09-18T06:39:59.472Z,1.70
2022-09-18T06:44:14.923Z,1.60
2022-09-18T06:48:26.033Z,1.65
2022-09-18T06:52:29.970Z,1.80
2022-09-18T06:56:35.830Z,1.90
2022-09-18T07:00:38.669Z,1.60
2022-09-18T07:04:43.892Z,1.63
2022-09-18T07:08:46.640Z,1.98
2022-09-18T07:12:59.093Z,1.73
2022-09-18T07:17:01.590Z,1.20
2022-09-18T07:21:06.400Z,1.40
2022-09-18T07:25:13.587Z,2.40
2022-09-18T07:29:18.670Z,1.40
2022-09-18T07:33:22.319Z,1.20
2022-09-18T07:37:26.355Z,0.90
2022-09-18T07:41:52.164Z,1.35
2022-09-18T07:45:54.825Z,0.93
2022-09-18T07:49:58.613Z,0.85
2022-09-18T07:54:02.582Z,1.10
2022-09-18T07:58:24.550Z,1.30
2022-09-18T08:02:37.906Z,1.10
2022-09-18T08:06:40.729Z,2.03
2022-09-18T08:10:50.820Z,1.02
2022-09-18T08:15:20.375Z,1.10
2022-09-18T08:19:45.787Z,1.00
2022-09-18T08:24:08.955Z,0.80
2022-09-18T08:28:13.244Z,0.98
2022-09-18T08:32:28.375Z,1.05
2022-09-18T08:36:31.558Z,0.85
2022-09-18T08:41:16.662Z,1.10
2022-09-18T08:45:39.437Z,1.10
2022-09-18T08:49:47.118Z,0.57
2022-09-18T08:53:56.123Z,0.90
2022-09-18T08:58:07.683Z,0.85
2022-09-18T09:02:27.170Z,0.98
2022-09-18T09:06:49.154Z,1.17
2022-09-18T09:11:07.093Z,1.08
2022-09-18T09:15:21.690Z,0.80
2022-09-18T09:19:31.369Z,0.77
2022-09-18T09:23:51.072Z,0.85
2022-09-18T09:28:21.012Z,1.02
2022-09-18T09:32:53.234Z,0.65
2022-09-18T09:37:15.147Z,0.93
2022-09-18T09:41:28.422Z,0.60
2022-09-18T09:45:39.665Z,0.80
2022-09-18T09:49:50.399Z,0.80
2022-09-18T09:53:55.936Z,0.90
2022-09-18T09:58:13.024Z,0.80
2022-09-18T10:02:33.467Z,0.90
2022-09-18T10:06:48.521Z,1.10
2022-09-18T10:10:58.662Z,0.90
2022-09-18T10:15:14.095Z,0.75
2022-09-18T10:19:20.363Z,1.00
2022-09-18T10:23:33.551Z,1.10
2022-09-18T10:27:37.927Z,1.00
2022-09-18T10:31:48.123Z,1.40
2022-09-18T10:35:52.606Z,0.80
2022-09-18T10:39:57.601Z,0.80
2022-09-18T10:44:08.093Z,1.27
2022-09-18T10:48:15.437Z,0.90
2022-09-18T10:52:32.153Z,0.70
2022-09-18T10:56:40.005Z,0.70
2022-09-18T11:00:50.959Z,0.90
2022-09-18T11:04:53.988Z,0.68
2022-09-18T11:09:02.238Z,0.65
2022-09-18T11:13:06.618Z,0.95
2022-09-18T11:17:25.719Z,0.65
2022-09-18T11:21:28.601Z,0.60
2022-09-18T11:25:31.264Z,0.57
2022-09-18T11:29:40.879Z,0.60
2022-09-18T11:33:52.408Z,0.43
2022-09-18T11:38:07.838Z,0.70
2022-09-18T11:42:15.123Z,0.57
2022-09-18T11:46:30.633Z,0.65
2022-09-18T11:50:37.766Z,0.55
2022-09-18T11:54:51.470Z,0.60
2022-09-18T11:58:59.124Z,0.55
2022-09-18T12:03:14.135Z,0.77
2022-09-18T12:07:37.631Z,0.70
2022-09-18T12:11:49.731Z,0.57
2022-09-18T12:15:58.609Z,0.77
2022-09-18T12:20:06.477Z,0.40
2022-09-18T12:24:14.447Z,0.50
2022-09-18T12:28:28.085Z,0.57
2022-09-18T12:32:54.299Z,0.43
2022-09-18T12:37:19.837Z,0.40
2022-09-18T12:41:39.461Z,0.65
2022-09-18T12:45:56.645Z,0.50
2022-09-18T12:50:22.549Z,0.75
2022-09-18T12:54:57.971Z,0.40
2022-09-18T12:59:24.781Z,0.40
2022-09-18T13:03:33.947Z,0.40
2022-09-18T13:07:41.167Z,0.60
2022-09-18T13:11:47.394Z,0.40
2022-09-18T13:15:54.833Z,0.30
2022-09-18T13:20:04.364Z,0.40
2022-09-18T13:24:07.982Z,0.40
2022-09-18T13:28:16.201Z,0.30
2022-09-18T13:32:23.148Z,0.45
2022-09-18T13:36:29.214Z,0.40
2022-09-18T13:40:38.667Z,0.47
2022-09-18T13:44:41.321Z,0.30
2022-09-18T13:48:48.867Z,0.23
2022-09-18T13:52:55.252Z,0.40
2022-09-18T13:57:20.595Z,0.30
2022-09-18T14:01:56.936Z,0.32
2022-09-18T14:06:20.865Z,0.20
2022-09-18T14:10:36.312Z,0.50
2022-09-18T14:14:39.477Z,0.30
2022-09-18T14:18:56.779Z,0.28
2022-09-18T14:23:41.189Z,0.40
2022-09-18T14:27:53.455Z,0.40
2022-09-18T14:31:57.688Z,0.57
2022-09-18T14:36:05.006Z,0.70
2022-09-18T14:40:19.218Z,0.50
2022-09-18T14:44:24.185Z,0.50
2022-09-18T14:48:29.231Z,0.30
2022-09-18T14:52:41.982Z,0.40
2022-09-18T14:56:44.502Z,0.60
2022-09-18T15:00:54.086Z,0.50
2022-09-18T15:04:56.951Z,0.30
2022-09-18T15:08:59.898Z,0.30
2022-09-18T15:13:06.558Z,0.22
2022-09-18T15:17:19.410Z,0.50
2022-09-18T15:21:29.843Z,0.30
2022-09-18T15:25:37.854Z,0.60
2022-09-18T15:29:44.620Z,0.65
2022-09-18T15:33:55.950Z,0.30
2022-09-18T15:38:03.416Z,0.40
2022-09-18T15:42:20.923Z,0.30
2022-09-18T15:46:28.130Z,0.50
2022-09-18T15:50:43.013Z,0.55
2022-09-18T15:55:03.825Z,1.00
2022-09-18T15:59:08.908Z,0.77
2022-09-18T16:03:19.862Z,0.73
2022-09-18T16:07:26.405Z,1.30
2022-09-18T16:11:42.669Z,1.00
2022-09-18T16:15:47.433Z,0.73
2022-09-18T16:19:49.924Z,0.70
2022-09-18T16:23:58.766Z,0.90
2022-09-18T16:28:14.599Z,0.70
2022-09-18T16:32:17.417Z,0.70
2022-09-18T16:36:29.354Z,0.40
2022-09-18T16:40:33.595Z,0.90
2022-09-18T16:44:36.110Z,0.80
2022-09-18T16:48:38.605Z,1.58
2022-09-18T16:52:41.435Z,1.63
2022-09-18T16:56:51.463Z,1.00
2022-09-18T17:00:54.021Z,1.00
2022-09-18T17:04:56.536Z,1.57
2022-09-18T17:08:59.615Z,1.40
2022-09-18T17:13:03.975Z,2.00
2022-09-18T17:17:06.630Z,2.05
2022-09-18T17:21:09.143Z,2.40
2022-09-18T17:25:13.248Z,2.40
2022-09-18T17:29:17.077Z,3.08
2022-09-18T17:33:20.518Z,2.10
2022-09-18T17:41:25.509Z,1.65
2022-09-18T17:45:29.647Z,2.17
2022-09-18T17:49:33.123Z,3.30
2022-09-18T17:53:35.609Z,2.63
2022-09-18T17:57:39.217Z,3.22
2022-09-18T18:01:46.445Z,3.40
2022-09-18T18:05:53.234Z,2.90
2022-09-18T18:09:55.731Z,1.70
2022-09-18T18:13:58.257Z,3.63
2022-09-18T18:18:02.670Z,3.60
2022-09-18T18:22:05.247Z,2.38
2022-09-18T18:26:09.322Z,3.72
2022-09-18T18:30:13.190Z,3.10
2022-09-18T18:34:20.999Z,3.88
2022-09-18T18:38:23.671Z,3.92
2022-09-18T18:42:27.015Z,2.70
2022-09-18T18:46:35.772Z,3.40
2022-09-18T18:50:42.639Z,3.53
2022-09-18T18:54:45.814Z,3.75
2022-09-18T18:58:48.295Z,3.03
2022-09-18T19:02:50.785Z,2.40
2022-09-18T19:06:56.451Z,5.78
2022-09-18T19:11:00.858Z,6.05
2022-09-18T19:15:03.362Z,5.40
2022-09-18T19:19:09.525Z,5.47
2022-09-18T19:23:16.106Z,4.90
2022-09-18T19:27:19.034Z,4.90
2022-09-18T19:31:22.228Z,4.03
2022-09-18T19:35:24.808Z,3.22
2022-09-18T19:39:28.783Z,3.95
2022-09-18T19:43:35.009Z,7.05
2022-09-18T19:47:40.964Z,5.07
2022-09-18T19:51:43.453Z,3.20
2022-09-18T19:55:47.614Z,3.20
2022-09-18T19:59:54.161Z,3.63
2022-09-18T20:03:58.637Z,5.20
2022-09-18T20:08:01.320Z,5.32
2022-09-18T20:12:05.513Z,4.50
2022-09-18T20:16:10.201Z,4.07
2022-09-18T20:20:16.248Z,4.10
2022-09-18T20:24:19.148Z,2.55
2022-09-18T20:28:23.006Z,2.80
2022-09-18T20:32:25.659Z,2.10
2022-09-18T20:36:29.303Z,2.93
2022-09-18T20:40:32.231Z,2.03
2022-09-18T20:44:36.069Z,2.00
2022-09-18T20:48:41.530Z,2.00
2022-09-18T20:52:45.099Z,1.88
